Toppenish, Washington
Current Conditions -  °F | °C
As of 6:53 AM on Monday 24 Nov 2014 (Local Time) from KYKM Reporting Station
Clear Clear  
Wind Chill: 19°   Ceiling: Unl
Heat Index: 25°   Visibility: 10mi
Dew Point: 21°   Wind: 5mph
Humidity: 85%   Direction: 290°WNW
Pressure: 30.36"   Gusts: NA
Location:  46.38°N, 120.31°W
Report Text: KYKM 241453Z AUTO 29004KT 10SM CLR M04/M06 A3036 RMK AO2 SLP291 T10391061 51005
Loading
Personal Weather Stations






























Interactive Weather Map New forecast layout! Learn more

10-Day Weather Forecast

Advertisements
Track Severe Weather on mobile